Time;durP1;ratioP1;P1;durP2;ratioP2;P2;SDS_P1;SDS_P2;PMS_P1;PMS_P2;Temp;Humidity;BMP_temperature;BMP_pressure;BME280_temperature;BME280_humidity;BME280_pressure;Samples;Min_cycle;Max_cycle;Signal;HPM_P1;HPM_P2
2024/04/13 00:00:24;;;;;;;;;;;;;;;11.16;77.30;100943.52;130733;1256;107298;-78
2024/04/13 00:03:48;;;;;;;;;;;;;;;11.11;77.29;100938.51;130588;1254;109360;-79
2024/04/13 00:06:53;;;;;;;;;;;;;;;11.07;77.56;100938.30;130668;1258;106663;-79
2024/04/13 00:09:57;;;;;;;;;;;;;;;11.04;77.71;100936.45;130624;1255;107752;-79
2024/04/13 00:13:01;;;;;;;;;;;;;;;11.03;77.75;100928.58;130714;1258;107469;-78
2024/04/13 00:16:05;;;;;;;;;;;;;;;11.03;77.66;100920.73;130586;1256;107686;-78
2024/04/13 00:19:11;;;;;;;;;;;;;;;11.04;78.01;100921.16;130599;1256;106151;-79
2024/04/13 00:22:14;;;;;;;;;;;;;;;11.07;78.25;100921.20;130594;1258;108732;-79
2024/04/13 00:25:18;;;;;;;;;;;;;;;11.13;78.26;100916.39;130609;1258;106793;-78
2024/04/13 00:28:22;;;;;;;;;;;;;;;11.19;78.51;100918.66;130652;1258;108653;-79
2024/04/13 00:31:26;;;;;;;;;;;;;;;11.25;78.39;100921.89;130632;1255;106706;-78
2024/04/13 00:34:30;;;;;;;;;;;;;;;11.31;78.52;100918.83;130548;1259;108026;-78
2024/04/13 00:37:34;;;;;;;;;;;;;;;11.37;78.80;100915.42;130667;1258;107909;-78
2024/04/13 00:40:37;;;;;;;;;;;;;;;11.43;78.89;100913.50;130640;1254;107183;-78
2024/04/13 00:43:41;;;;;;;;;;;;;;;11.48;78.75;100909.48;130555;1258;108340;-78
2024/04/13 00:46:45;;;;;;;;;;;;;;;11.53;79.28;100906.59;130548;1258;107198;-78
2024/04/13 00:49:51;;;;;;;;;;;;;;;11.61;79.48;100901.79;130564;1258;108735;-79
2024/04/13 00:52:59;;;;;;;;;;;;;;;11.72;79.31;100903.58;130812;1255;108487;-79
2024/04/13 00:56:06;;;;;;;;;;;;;;;11.86;79.46;100900.96;130543;1257;108612;-79
2024/04/13 00:59:10;;;;;;;;;;;;;;;11.99;79.56;100895.91;130573;1255;108272;-78
2024/04/13 01:02:18;;;;;;;;;;;;;;;12.13;79.40;100893.89;130603;1258;106283;-80
2024/04/13 01:05:22;;;;;;;;;;;;;;;12.26;79.46;100889.24;130613;1255;106608;-79
2024/04/13 01:08:28;;;;;;;;;;;;;;;12.38;79.43;100886.88;130666;1258;106486;-78
2024/04/13 01:11:34;;;;;;;;;;;;;;;12.49;79.51;100886.84;130567;1255;107930;-79
2024/04/13 01:14:38;;;;;;;;;;;;;;;12.58;79.43;100885.77;130535;1261;107569;-78
2024/04/13 01:17:43;;;;;;;;;;;;;;;12.65;79.55;100878.52;130404;1255;108661;-78
2024/04/13 01:20:48;;;;;;;;;;;;;;;12.70;79.52;100876.24;130645;1258;107584;-78
2024/04/13 01:23:55;;;;;;;;;;;;;;;12.73;79.50;100870.95;130569;1260;107491;-77
2024/04/13 01:26:59;;;;;;;;;;;;;;;12.75;79.53;100872.85;130571;1258;108676;-77
2024/04/13 01:30:03;;;;;;;;;;;;;;;12.78;79.63;100869.94;130559;1258;107789;-78
2024/04/13 01:33:07;;;;;;;;;;;;;;;12.79;79.77;100873.53;130627;1258;108555;-77
2024/04/13 01:36:11;;;;;;;;;;;;;;;12.79;79.88;100872.98;130564;1254;107826;-77
2024/04/13 01:39:15;;;;;;;;;;;;;;;12.79;79.85;100870.32;130597;1258;108879;-78
2024/04/13 01:42:19;;;;;;;;;;;;;;;12.80;79.94;100865.09;130576;1258;106390;-77
2024/04/13 01:45:23;;;;;;;;;;;;;;;12.80;79.99;100871.84;130609;1258;106178;-78
2024/04/13 01:48:27;;;;;;;;;;;;;;;12.82;80.01;100873.48;130597;1258;108133;-76
2024/04/13 01:51:31;;;;;;;;;;;;;;;12.83;80.03;100877.08;130598;1255;107434;-77
2024/04/13 01:54:35;;;;;;;;;;;;;;;12.85;80.04;100875.66;130776;1258;109170;-78
2024/04/13 01:57:39;;;;;;;;;;;;;;;12.87;80.16;100875.79;130622;1258;106708;-79
2024/04/13 02:00:43;;;;;;;;;;;;;;;12.90;80.24;100876.69;130572;1255;107791;-77
2024/04/13 02:03:47;;;;;;;;;;;;;;;12.93;80.20;100881.04;130621;1258;106693;-77
2024/04/13 02:06:50;;;;;;;;;;;;;;;12.96;80.25;100875.77;130686;1257;106472;-77
2024/04/13 02:09:54;;;;;;;;;;;;;;;13.00;80.38;100873.92;130587;1256;106607;-78
2024/04/13 02:12:58;;;;;;;;;;;;;;;13.07;80.46;100877.17;130564;1258;107710;-77
2024/04/13 02:16:02;;;;;;;;;;;;;;;13.16;80.58;100873.39;130662;1258;107625;-77
2024/04/13 02:19:06;;;;;;;;;;;;;;;13.27;80.53;100875.73;130591;1258;107090;-77
2024/04/13 02:22:10;;;;;;;;;;;;;;;13.37;80.33;100878.08;130666;1258;106875;-77
2024/04/13 02:25:14;;;;;;;;;;;;;;;13.49;80.34;100871.52;130671;1256;107872;-78
2024/04/13 02:28:18;;;;;;;;;;;;;;;13.60;80.19;100873.25;130571;1255;107724;-77
2024/04/13 02:31:22;;;;;;;;;;;;;;;13.70;80.21;100871.48;130622;1255;108742;-79
2024/04/13 02:34:25;;;;;;;;;;;;;;;13.79;79.85;100870.27;130700;1260;108610;-78
2024/04/13 02:37:29;;;;;;;;;;;;;;;13.85;79.97;100867.46;130738;1258;107203;-78
2024/04/13 02:40:33;;;;;;;;;;;;;;;13.89;79.98;100864.91;130661;1258;108710;-79
2024/04/13 02:43:37;;;;;;;;;;;;;;;13.90;79.98;100869.27;130569;1258;107211;-78
2024/04/13 02:46:41;;;;;;;;;;;;;;;13.89;79.89;100866.54;130411;1257;208912;-78
2024/04/13 02:49:45;;;;;;;;;;;;;;;13.87;80.04;100865.52;130628;1257;107616;-78
2024/04/13 02:52:48;;;;;;;;;;;;;;;13.85;79.81;100865.55;130935;1258;108885;-78
2024/04/13 02:55:52;;;;;;;;;;;;;;;13.82;79.93;100860.47;130682;1267;106455;-78
2024/04/13 02:58:56;;;;;;;;;;;;;;;13.80;79.96;100859.99;130720;1258;108751;-79
2024/04/13 03:02:00;;;;;;;;;;;;;;;13.78;79.99;100861.32;130663;1258;108660;-77
2024/04/13 03:05:04;;;;;;;;;;;;;;;13.74;80.28;100862.70;130637;1258;108768;-78
2024/04/13 03:08:09;;;;;;;;;;;;;;;13.70;80.18;100865.11;130722;1256;108491;-77
2024/04/13 03:11:13;;;;;;;;;;;;;;;13.67;80.19;100868.77;130590;1256;107960;-78
2024/04/13 03:14:17;;;;;;;;;;;;;;;13.64;80.18;100869.27;130577;1258;106901;-77
2024/04/13 03:17:20;;;;;;;;;;;;;;;13.62;80.26;100872.75;130670;1259;106738;-77
2024/04/13 03:20:25;;;;;;;;;;;;;;;13.60;80.31;100873.14;130712;1259;108438;-77
2024/04/13 03:23:30;;;;;;;;;;;;;;;13.57;80.43;100868.21;130630;1263;107928;-78
2024/04/13 03:26:34;;;;;;;;;;;;;;;13.56;80.41;100870.52;130580;1258;108746;-78
2024/04/13 03:29:38;;;;;;;;;;;;;;;13.54;80.56;100871.34;130594;1258;108599;-78
2024/04/13 03:32:42;;;;;;;;;;;;;;;13.53;80.56;100868.09;130586;1262;107741;-78
2024/04/13 03:35:46;;;;;;;;;;;;;;;13.54;80.59;100868.92;130660;1268;106849;-78
2024/04/13 03:38:55;;;;;;;;;;;;;;;13.56;80.67;100863.34;130525;1255;106658;-78
2024/04/13 03:41:59;;;;;;;;;;;;;;;13.61;80.93;100860.35;130590;1258;107821;-79
2024/04/13 03:45:04;;;;;;;;;;;;;;;13.69;80.84;100855.37;130696;1255;108327;-78
2024/04/13 03:48:08;;;;;;;;;;;;;;;13.77;80.77;100857.46;130698;1258;106446;-78
2024/04/13 03:51:13;;;;;;;;;;;;;;;13.85;80.88;100856.77;130693;1258;107721;-78
2024/04/13 03:54:16;;;;;;;;;;;;;;;13.93;80.76;100856.49;130944;1264;108127;-78
2024/04/13 03:57:20;;;;;;;;;;;;;;;14.00;80.53;100859.53;130699;1261;108715;-78
2024/04/13 04:00:24;;;;;;;;;;;;;;;14.05;80.56;100857.20;130539;1258;108654;-78
2024/04/13 04:03:27;;;;;;;;;;;;;;;14.07;80.42;100857.84;130552;1269;106649;-79
2024/04/13 04:06:31;;;;;;;;;;;;;;;14.08;80.50;100862.00;130690;1259;107935;-78
2024/04/13 04:09:35;;;;;;;;;;;;;;;14.08;80.54;100860.97;130591;1258;107388;-79
2024/04/13 04:12:39;;;;;;;;;;;;;;;14.07;80.48;100860.23;130686;1258;107654;-79
2024/04/13 04:15:43;;;;;;;;;;;;;;;14.05;80.68;100866.59;130704;1267;106707;-79
2024/04/13 04:18:47;;;;;;;;;;;;;;;14.05;80.45;100869.00;130603;1262;106261;-78
2024/04/13 04:21:50;;;;;;;;;;;;;;;14.02;80.58;100870.04;130792;1255;107700;-78
2024/04/13 04:24:54;;;;;;;;;;;;;;;13.99;80.70;100875.49;130724;1255;108815;-79
2024/04/13 04:27:58;;;;;;;;;;;;;;;13.97;80.79;100875.91;130633;1258;108605;-79
2024/04/13 04:31:10;;;;;;;;;;;;;;;13.94;80.66;100871.54;130695;1259;107721;-78
2024/04/13 04:34:14;;;;;;;;;;;;;;;13.92;80.67;100870.69;130769;1258;107630;-78
2024/04/13 04:37:18;;;;;;;;;;;;;;;13.91;80.43;100869.34;130713;1259;107629;-79
2024/04/13 04:40:22;;;;;;;;;;;;;;;13.90;80.76;100867.83;130590;1258;106814;-78
2024/04/13 04:43:26;;;;;;;;;;;;;;;13.90;80.59;100864.87;130722;1258;108609;-77
2024/04/13 04:46:30;;;;;;;;;;;;;;;13.89;80.59;100866.17;130672;1254;106938;-78
2024/04/13 04:49:35;;;;;;;;;;;;;;;13.90;80.36;100870.71;130500;1258;106861;-79
2024/04/13 04:52:39;;;;;;;;;;;;;;;13.94;80.34;100868.73;130689;1259;107745;-77
2024/04/13 04:55:43;;;;;;;;;;;;;;;14.02;80.12;100866.81;130578;1262;108719;-78
2024/04/13 04:58:46;;;;;;;;;;;;;;;14.12;80.06;100870.20;130732;1259;107986;-77
2024/04/13 05:01:50;;;;;;;;;;;;;;;14.24;80.17;100871.98;130516;1267;108061;-78
2024/04/13 05:04:54;;;;;;;;;;;;;;;14.37;80.04;100872.98;130746;1258;106976;-78
2024/04/13 05:07:58;;;;;;;;;;;;;;;14.49;79.78;100877.73;133700;1254;108813;-78
2024/04/13 05:11:01;;;;;;;;;;;;;;;14.60;79.68;100877.62;134914;1254;108055;-78
2024/04/13 05:14:07;;;;;;;;;;;;;;;14.67;79.65;100879.24;132460;1258;107269;-78
2024/04/13 05:17:13;;;;;;;;;;;;;;;14.76;79.61;100880.54;130662;1258;108073;-78
2024/04/13 05:20:17;;;;;;;;;;;;;;;14.84;79.58;100879.82;130567;1268;108633;-78
2024/04/13 05:23:20;;;;;;;;;;;;;;;14.87;79.39;100878.34;130685;1257;107072;-78
2024/04/13 05:26:24;;;;;;;;;;;;;;;14.90;79.22;100879.35;130637;1263;107147;-77
2024/04/13 05:29:28;;;;;;;;;;;;;;;14.94;79.26;100881.95;130654;1259;108702;-80
2024/04/13 05:32:34;;;;;;;;;;;;;;;15.00;79.07;100886.38;130713;1269;107763;-79
2024/04/13 05:35:37;;;;;;;;;;;;;;;15.02;79.02;100885.21;130564;1268;108439;-80
2024/04/13 05:38:41;;;;;;;;;;;;;;;15.05;79.18;100886.42;130665;1258;106756;-82
2024/04/13 05:41:45;;;;;;;;;;;;;;;15.09;78.97;100883.70;130701;1262;107711;-79
2024/04/13 05:44:49;;;;;;;;;;;;;;;15.15;78.98;100880.42;130695;1265;108618;-80
2024/04/13 05:47:52;;;;;;;;;;;;;;;15.23;79.00;100882.93;130559;1269;106635;-81
2024/04/13 05:50:57;;;;;;;;;;;;;;;15.25;78.93;100878.88;130757;1268;108736;-80
2024/04/13 05:54:01;;;;;;;;;;;;;;;15.30;79.00;100874.67;130702;1260;108678;-79
2024/04/13 05:57:06;;;;;;;;;;;;;;;15.38;79.06;100873.46;130678;1268;108499;-80
2024/04/13 06:00:12;;;;;;;;;;;;;;;15.41;78.80;100873.95;130563;1255;107802;-80
2024/04/13 06:03:15;;;;;;;;;;;;;;;15.42;78.85;100869.35;130623;1258;106490;-81
2024/04/13 06:06:19;;;;;;;;;;;;;;;15.43;78.87;100866.96;130667;1268;106302;-81
2024/04/13 06:09:23;;;;;;;;;;;;;;;15.46;78.79;100866.42;131071;1258;106928;-81
2024/04/13 06:12:27;;;;;;;;;;;;;;;15.51;78.77;100863.92;130766;1266;106943;-81
2024/04/13 06:15:31;;;;;;;;;;;;;;;15.59;78.89;100864.98;130781;1260;107308;-81
2024/04/13 06:18:35;;;;;;;;;;;;;;;15.70;78.86;100861.94;130912;1259;106788;-83
2024/04/13 06:21:39;;;;;;;;;;;;;;;15.80;78.72;100859.80;130654;1268;107620;-81
2024/04/13 06:24:42;;;;;;;;;;;;;;;15.86;78.55;100860.34;130695;1268;106906;-82
2024/04/13 06:27:46;;;;;;;;;;;;;;;15.89;78.22;100863.30;130926;1261;107770;-81
2024/04/13 06:30:51;;;;;;;;;;;;;;;15.99;78.50;100859.83;130643;1269;106488;-81
2024/04/13 06:33:56;;;;;;;;;;;;;;;16.10;78.48;100856.92;130691;1259;107644;-81
2024/04/13 06:37:00;;;;;;;;;;;;;;;16.19;78.36;100848.08;130741;1258;107741;-82
2024/04/13 06:40:06;;;;;;;;;;;;;;;16.22;78.34;100846.31;130769;1262;106300;-82
2024/04/13 06:43:09;;;;;;;;;;;;;;;16.21;78.07;100848.41;130863;1269;107752;-82
2024/04/13 06:46:13;;;;;;;;;;;;;;;16.11;78.01;100851.11;130714;1257;107608;-81
2024/04/13 06:49:17;;;;;;;;;;;;;;;15.94;78.06;100857.86;130735;1268;106816;-80
2024/04/13 06:52:21;;;;;;;;;;;;;;;15.80;78.46;100855.29;130630;1263;107987;-81
2024/04/13 06:55:25;;;;;;;;;;;;;;;15.74;78.51;100861.30;130585;1258;107577;-83
2024/04/13 06:58:29;;;;;;;;;;;;;;;15.74;78.53;100873.63;130594;1258;107063;-80
2024/04/13 07:01:33;;;;;;;;;;;;;;;15.73;78.99;100876.39;130493;1260;107740;-80
2024/04/13 07:04:37;;;;;;;;;;;;;;;15.73;79.05;100877.61;130535;1255;108634;-80
2024/04/13 07:07:40;;;;;;;;;;;;;;;15.75;79.01;100879.92;130517;1254;106466;-79
2024/04/13 07:10:44;;;;;;;;;;;;;;;15.87;78.91;100876.38;130645;1269;108659;-80
2024/04/13 07:13:48;;;;;;;;;;;;;;;16.00;78.64;100872.25;130514;1257;108212;-82
2024/04/13 07:16:52;;;;;;;;;;;;;;;16.15;78.62;100870.23;130531;1267;107571;-80
2024/04/13 07:19:56;;;;;;;;;;;;;;;16.29;78.38;100863.55;130553;1258;107869;-80
2024/04/13 07:22:59;;;;;;;;;;;;;;;16.43;78.32;100867.95;130673;1268;108373;-80
2024/04/13 07:26:04;;;;;;;;;;;;;;;16.46;77.35;100868.84;130575;1268;106776;-80
2024/04/13 07:29:08;;;;;;;;;;;;;;;16.43;77.86;100858.17;130538;1254;106876;-81
2024/04/13 07:32:12;;;;;;;;;;;;;;;16.52;77.85;100852.21;130486;1254;107849;-80
2024/04/13 07:35:16;;;;;;;;;;;;;;;16.61;77.75;100853.84;130684;1260;106483;-81
2024/04/13 07:38:19;;;;;;;;;;;;;;;16.69;77.62;100850.69;130702;1261;106848;-80
2024/04/13 07:41:23;;;;;;;;;;;;;;;16.74;77.41;100844.77;130961;1254;106774;-81
2024/04/13 07:44:27;;;;;;;;;;;;;;;16.73;77.08;100844.70;130802;1258;108987;-81
2024/04/13 07:47:30;;;;;;;;;;;;;;;16.73;77.07;100845.58;131064;1257;108028;-81
2024/04/13 07:50:34;;;;;;;;;;;;;;;16.72;76.01;100844.80;130993;1257;106512;-83
2024/04/13 07:53:38;;;;;;;;;;;;;;;16.71;75.92;100842.80;130841;1258;107137;-81
2024/04/13 07:56:42;;;;;;;;;;;;;;;16.78;76.53;100835.65;130657;1257;108758;-81
2024/04/13 07:59:46;;;;;;;;;;;;;;;16.94;76.05;100832.21;130791;1257;106513;-81
2024/04/13 08:02:50;;;;;;;;;;;;;;;17.07;76.09;100825.09;130666;1260;107835;-82
2024/04/13 08:05:54;;;;;;;;;;;;;;;17.22;75.74;100826.71;130622;1260;107870;-80
2024/04/13 08:08:57;;;;;;;;;;;;;;;17.34;75.18;100825.73;130738;1268;107662;-81
2024/04/13 08:12:01;;;;;;;;;;;;;;;17.39;74.75;100821.09;130439;1258;107400;-82
2024/04/13 08:15:08;;;;;;;;;;;;;;;17.40;74.41;100816.30;131117;1257;107757;-80
2024/04/13 08:18:12;;;;;;;;;;;;;;;17.43;74.12;100820.81;130890;1258;107661;-80
2024/04/13 08:21:16;;;;;;;;;;;;;;;17.42;71.78;100826.40;130727;1258;106939;-82
2024/04/13 08:24:20;;;;;;;;;;;;;;;17.40;72.89;100821.14;130714;1257;107392;-82
2024/04/13 08:27:24;;;;;;;;;;;;;;;17.49;73.70;100820.69;130759;1257;108651;-82
2024/04/13 08:30:27;;;;;;;;;;;;;;;17.53;72.29;100819.09;130733;1257;106723;-82
2024/04/13 08:33:31;;;;;;;;;;;;;;;17.52;72.20;100815.13;130649;1266;108690;-84
2024/04/13 08:36:35;;;;;;;;;;;;;;;17.58;73.38;100806.10;130619;1258;107610;-83
2024/04/13 08:39:41;;;;;;;;;;;;;;;17.67;73.29;100798.67;130817;1254;107725;-82
2024/04/13 08:42:45;;;;;;;;;;;;;;;17.72;72.63;100794.74;130726;1255;107648;-82
2024/04/13 08:45:49;;;;;;;;;;;;;;;17.83;72.24;100800.73;130794;1254;108220;-82
2024/04/13 08:48:53;;;;;;;;;;;;;;;17.96;72.35;100803.48;130663;1255;107720;-80
2024/04/13 08:51:57;;;;;;;;;;;;;;;18.17;72.23;100800.42;130717;1259;106531;-81
2024/04/13 08:55:01;;;;;;;;;;;;;;;18.35;70.65;100808.03;130764;1255;107881;-83
2024/04/13 08:58:06;;;;;;;;;;;;;;;18.50;68.90;100811.39;130756;1255;108566;-82
2024/04/13 09:01:13;;;;;;;;;;;;;;;18.68;70.13;100808.08;130741;1258;108111;-82
2024/04/13 09:04:17;;;;;;;;;;;;;;;18.86;70.45;100802.29;130764;1255;107243;-79
2024/04/13 09:07:22;;;;;;;;;;;;;;;19.00;68.07;100810.23;130613;1258;107770;-79
2024/04/13 09:10:26;;;;;;;;;;;;;;;19.18;69.55;100806.13;130607;1257;107533;-79
2024/04/13 09:13:31;;;;;;;;;;;;;;;19.29;68.07;100803.80;130497;1267;107547;-81
2024/04/13 09:16:35;;;;;;;;;;;;;;;19.35;67.50;100804.64;130836;1254;107633;-74
2024/04/13 09:19:38;;;;;;;;;;;;;;;19.30;63.40;100800.40;130698;1255;109354;-75
2024/04/13 09:22:42;;;;;;;;;;;;;;;19.16;62.50;100801.54;130757;1257;108598;-76
2024/04/13 09:25:46;;;;;;;;;;;;;;;19.15;63.83;100798.13;130587;1269;108677;-75
2024/04/13 09:28:50;;;;;;;;;;;;;;;19.21;64.14;100801.34;130727;1261;108774;-75
2024/04/13 09:31:53;;;;;;;;;;;;;;;19.39;63.33;100800.34;130559;1258;108839;-75
2024/04/13 09:35:08;;;;;;;;;;;;;;;19.41;62.25;100803.89;130637;1257;108493;-75
2024/04/13 09:38:16;;;;;;;;;;;;;;;19.40;63.14;100798.47;130494;1258;109119;-76
2024/04/13 09:41:22;;;;;;;;;;;;;;;19.54;63.18;100791.19;130637;1268;107589;-76
2024/04/13 09:44:27;;;;;;;;;;;;;;;19.57;59.49;100797.36;130588;1258;107512;-76
2024/04/13 09:47:31;;;;;;;;;;;;;;;19.46;59.42;100799.09;130518;1254;108485;-76
2024/04/13 09:50:35;;;;;;;;;;;;;;;19.38;60.59;100801.36;130620;1261;106923;-76
2024/04/13 09:53:38;;;;;;;;;;;;;;;19.41;59.17;100804.96;130510;1254;106970;-76
2024/04/13 09:56:44;;;;;;;;;;;;;;;19.31;53.37;100812.36;130614;1260;106659;-75
2024/04/13 09:59:48;;;;;;;;;;;;;;;19.35;55.11;100816.75;130669;1257;107926;-76
2024/04/13 10:02:51;;;;;;;;;;;;;;;19.36;53.72;100816.21;130628;1258;107729;-78
2024/04/13 10:05:56;;;;;;;;;;;;;;;19.33;53.77;100810.66;130662;1257;106640;-76
2024/04/13 10:09:00;;;;;;;;;;;;;;;19.34;55.55;100806.45;130898;1254;107283;-78
2024/04/13 10:12:04;;;;;;;;;;;;;;;19.33;55.00;100802.08;131327;1254;106941;-76
2024/04/13 10:15:09;;;;;;;;;;;;;;;19.44;57.56;100792.84;130494;1257;107928;-75
2024/04/13 10:18:14;;;;;;;;;;;;;;;19.61;56.35;100805.14;130531;1257;108832;-79
2024/04/13 10:21:21;;;;;;;;;;;;;;;19.63;53.75;100803.90;130588;1257;107951;-78
2024/04/13 10:24:27;;;;;;;;;;;;;;;19.67;53.74;100800.05;130530;1260;108391;-79
2024/04/13 10:27:32;;;;;;;;;;;;;;;19.70;52.46;100799.45;130520;1258;107776;-80
2024/04/13 10:30:50;;;;;;;;;;;;;;;19.89;54.82;100790.36;130516;1258;107818;-78
2024/04/13 10:33:54;;;;;;;;;;;;;;;19.98;53.23;100789.52;130766;1254;107776;-79
2024/04/13 10:36:58;;;;;;;;;;;;;;;19.88;53.98;100789.77;130579;1255;108633;-78
2024/04/13 10:40:04;;;;;;;;;;;;;;;19.91;55.03;100783.95;130641;1267;106990;-79
2024/04/13 10:43:11;;;;;;;;;;;;;;;19.91;53.89;100785.17;130611;1257;106873;-81
2024/04/13 10:46:15;;;;;;;;;;;;;;;19.84;54.51;100777.63;130603;1254;108483;-76
2024/04/13 10:49:19;;;;;;;;;;;;;;;19.91;54.60;100777.24;130464;1258;108662;-77
2024/04/13 10:52:23;;;;;;;;;;;;;;;20.01;54.53;100780.91;130554;1258;107644;-76
2024/04/13 10:55:27;;;;;;;;;;;;;;;20.09;53.80;100784.07;130565;1258;107031;-77
2024/04/13 10:58:31;;;;;;;;;;;;;;;20.10;54.51;100782.24;130523;1255;108501;-77
2024/04/13 11:01:40;;;;;;;;;;;;;;;20.11;53.92;100777.20;130557;1257;106662;-77
2024/04/13 11:04:44;;;;;;;;;;;;;;;20.11;53.68;100771.95;130488;1257;108217;-77
2024/04/13 11:07:50;;;;;;;;;;;;;;;20.14;52.48;100772.62;130503;1258;106645;-76
2024/04/13 11:10:55;;;;;;;;;;;;;;;20.09;52.92;100764.83;130629;1257;107190;-76
2024/04/13 11:13:59;;;;;;;;;;;;;;;20.12;52.36;100760.90;130491;1257;108557;-78
2024/04/13 11:17:03;;;;;;;;;;;;;;;20.14;51.99;100764.25;130635;1257;109188;-76
2024/04/13 11:20:10;;;;;;;;;;;;;;;20.10;50.73;100762.40;130580;1254;106193;-76
2024/04/13 11:23:15;;;;;;;;;;;;;;;19.99;51.09;100762.58;130510;1257;108709;-78
2024/04/13 11:26:19;;;;;;;;;;;;;;;19.89;50.77;100759.25;130409;1257;108645;-79
2024/04/13 11:29:23;;;;;;;;;;;;;;;19.96;51.96;100758.90;130541;1254;108466;-77
2024/04/13 11:32:27;;;;;;;;;;;;;;;20.02;50.47;100756.46;130483;1258;107509;-78
2024/04/13 11:35:31;;;;;;;;;;;;;;;20.06;51.02;100751.23;130531;1260;108838;-77
2024/04/13 11:38:35;;;;;;;;;;;;;;;20.11;50.75;100751.06;130483;1258;107665;-77
2024/04/13 11:41:39;;;;;;;;;;;;;;;20.21;51.75;100742.17;130562;1254;106718;-78
2024/04/13 11:44:44;;;;;;;;;;;;;;;20.32;50.94;100741.07;130513;1254;107673;-76
2024/04/13 11:47:48;;;;;;;;;;;;;;;20.34;50.33;100741.05;130506;1256;108046;-76
2024/04/13 11:50:51;;;;;;;;;;;;;;;20.27;49.84;100738.89;130487;1254;105875;-76
2024/04/13 11:53:56;;;;;;;;;;;;;;;20.31;50.70;100746.83;130489;1257;107989;-76
2024/04/13 11:57:00;;;;;;;;;;;;;;;20.28;50.46;100747.40;130503;1258;108527;-75
2024/04/13 12:00:05;;;;;;;;;;;;;;;20.32;51.20;100743.79;130586;1255;106975;-75
2024/04/13 12:03:16;;;;;;;;;;;;;;;20.33;50.02;100742.34;130822;1257;108598;-76
2024/04/13 12:06:20;;;;;;;;;;;;;;;20.33;49.53;100746.34;131029;1257;107768;-75
2024/04/13 12:09:25;;;;;;;;;;;;;;;20.33;49.41;100745.24;130671;1257;107486;-76
2024/04/13 12:12:28;;;;;;;;;;;;;;;20.41;50.30;100739.30;130738;1257;108519;-78
2024/04/13 12:15:32;;;;;;;;;;;;;;;20.47;49.00;100740.19;130517;1257;106929;-77
2024/04/13 12:18:36;;;;;;;;;;;;;;;20.44;49.69;100744.26;130489;1257;106790;-77
2024/04/13 12:21:41;;;;;;;;;;;;;;;20.44;50.22;100738.10;130519;1269;108321;-74
2024/04/13 12:24:44;;;;;;;;;;;;;;;20.42;48.52;100733.80;130515;1257;108480;-75
2024/04/13 12:27:48;;;;;;;;;;;;;;;20.51;49.91;100728.05;130685;1258;108526;-75
2024/04/13 12:30:52;;;;;;;;;;;;;;;20.72;49.63;100728.14;130684;1258;107591;-74
2024/04/13 12:33:56;;;;;;;;;;;;;;;20.89;49.04;100723.20;130485;1257;106997;-74
2024/04/13 12:37:00;;;;;;;;;;;;;;;20.95;47.70;100724.70;130489;1257;107496;-73
2024/04/13 12:40:04;;;;;;;;;;;;;;;20.98;48.07;100722.79;130504;1257;108702;-73
2024/04/13 12:43:07;;;;;;;;;;;;;;;20.99;46.87;100713.98;130490;1267;107972;-77
2024/04/13 12:46:11;;;;;;;;;;;;;;;20.94;46.76;100721.79;130467;1254;108729;-74
2024/04/13 12:49:15;;;;;;;;;;;;;;;20.87;47.72;100711.44;130744;1255;108034;-76
2024/04/13 12:56:06;;;;;;;;;;;;;;;20.71;47.01;100705.48;132165;1253;106894;-76
2024/04/13 12:59:10;;;;;;;;;;;;;;;20.68;47.62;100698.23;130759;1256;107756;-74
2024/04/13 13:02:13;;;;;;;;;;;;;;;20.64;47.38;100699.98;130788;1257;106988;-75
2024/04/13 13:05:17;;;;;;;;;;;;;;;20.57;46.98;100702.70;131061;1255;108729;-75
2024/04/13 13:08:21;;;;;;;;;;;;;;;20.52;47.11;100696.34;130675;1257;107073;-74
2024/04/13 13:11:24;;;;;;;;;;;;;;;20.54;46.83;100691.27;130604;1258;107354;-77
2024/04/13 13:14:29;;;;;;;;;;;;;;;20.51;46.88;100684.30;130576;1268;107373;-76
2024/04/13 13:17:32;;;;;;;;;;;;;;;20.47;45.99;100680.38;131464;1258;107623;-76
2024/04/13 13:20:38;;;;;;;;;;;;;;;20.48;46.24;100676.51;131304;1256;109360;-76
2024/04/13 13:23:44;;;;;;;;;;;;;;;20.52;46.56;100677.67;130657;1257;108663;-77
2024/04/13 13:26:47;;;;;;;;;;;;;;;20.54;45.07;100671.20;130652;1254;107710;-76
2024/04/13 13:29:52;;;;;;;;;;;;;;;20.58;46.17;100669.09;130573;1257;106404;-77
2024/04/13 13:33:00;;;;;;;;;;;;;;;20.67;45.96;100665.94;130755;1254;106746;-78
2024/04/13 13:36:06;;;;;;;;;;;;;;;20.68;45.48;100669.89;130889;1258;107617;-77
2024/04/13 13:39:10;;;;;;;;;;;;;;;20.69;45.75;100670.94;131057;1257;108743;-75
2024/04/13 13:42:13;;;;;;;;;;;;;;;20.56;43.49;100672.34;130699;1254;107055;-75
2024/04/13 13:45:17;;;;;;;;;;;;;;;20.44;44.20;100664.12;130692;1257;108625;-75
2024/04/13 13:48:21;;;;;;;;;;;;;;;20.39;45.48;100664.15;130724;1257;107422;-75
2024/04/13 13:51:25;;;;;;;;;;;;;;;20.40;45.04;100666.41;130534;1258;106879;-75
2024/04/13 13:54:28;;;;;;;;;;;;;;;20.38;43.61;100671.23;130988;1257;109047;-76
2024/04/13 13:57:32;;;;;;;;;;;;;;;20.35;43.78;100674.61;130893;1257;108880;-75
2024/04/13 14:00:54;;;;;;;;;;;;;;;20.33;43.85;100667.11;130493;1255;107473;-75
2024/04/13 14:03:57;;;;;;;;;;;;;;;20.33;44.01;100672.95;130652;1254;107664;-75
2024/04/13 14:07:01;;;;;;;;;;;;;;;20.31;43.62;100676.77;130722;1257;109126;-74
2024/04/13 14:10:05;;;;;;;;;;;;;;;20.34;43.81;100676.54;132939;1254;107440;-75
2024/04/13 14:13:09;;;;;;;;;;;;;;;20.42;44.35;100663.56;130688;1257;108563;-74
2024/04/13 14:16:13;;;;;;;;;;;;;;;20.47;43.92;100658.56;130659;1261;108362;-76
2024/04/13 14:19:17;;;;;;;;;;;;;;;20.53;43.65;100659.86;130667;1258;106764;-75
2024/04/13 14:22:21;;;;;;;;;;;;;;;20.65;44.40;100652.42;130507;1258;107491;-75
2024/04/13 14:25:24;;;;;;;;;;;;;;;20.75;43.00;100658.10;130510;1260;107535;-75
2024/04/13 14:28:28;;;;;;;;;;;;;;;20.72;40.39;100657.80;130520;1254;106422;-75
2024/04/13 14:31:32;;;;;;;;;;;;;;;20.57;40.29;100652.08;130568;1256;107920;-75
2024/04/13 14:34:36;;;;;;;;;;;;;;;20.45;41.63;100655.35;130431;1260;108440;-76
2024/04/13 14:37:40;;;;;;;;;;;;;;;20.47;42.45;100653.27;130347;1260;108528;-76
2024/04/13 14:40:44;;;;;;;;;;;;;;;20.55;43.07;100647.89;130496;1257;107663;-75
2024/04/13 14:43:49;;;;;;;;;;;;;;;20.62;42.71;100648.42;130480;1258;108726;-75
2024/04/13 14:47:11;;;;;;;;;;;;;;;20.59;42.31;100640.56;130302;1257;257806;-75
2024/04/13 14:50:15;;;;;;;;;;;;;;;20.54;42.89;100640.59;130492;1257;108147;-75
2024/04/13 14:53:20;;;;;;;;;;;;;;;20.50;43.13;100637.89;130526;1258;107337;-74
2024/04/13 14:56:24;;;;;;;;;;;;;;;20.52;42.54;100645.77;130532;1257;108532;-75
2024/04/13 14:59:28;;;;;;;;;;;;;;;20.45;40.62;100643.84;130473;1254;107776;-75
2024/04/13 15:02:32;;;;;;;;;;;;;;;20.33;39.40;100644.73;130494;1254;106781;-76
2024/04/13 15:05:36;;;;;;;;;;;;;;;20.22;39.94;100643.80;130483;1258;106630;-75
2024/04/13 15:08:40;;;;;;;;;;;;;;;20.21;41.36;100641.75;130502;1258;108541;-75
2024/04/13 15:11:43;;;;;;;;;;;;;;;20.18;41.21;100644.08;130570;1257;108787;-75
2024/04/13 15:15:06;;;;;;;;;;;;;;;20.12;41.49;100647.73;130649;1257;107115;-75
2024/04/13 15:18:10;;;;;;;;;;;;;;;20.03;41.16;100641.85;130547;1254;106922;-75
2024/04/13 15:21:15;;;;;;;;;;;;;;;20.01;42.07;100641.02;130540;1259;108785;-76
2024/04/13 15:24:20;;;;;;;;;;;;;;;20.01;41.62;100645.69;130921;1257;108188;-78
2024/04/13 15:27:44;;;;;;;;;;;;;;;19.99;42.06;100645.60;130597;1254;107555;-78